createdAt,value
2019-02-21T00:00:41.217Z,29.50
2019-02-21T00:01:41.405Z,29.60
2019-02-21T00:02:41.117Z,29.30
2019-02-21T00:03:41.077Z,30.80
2019-02-21T00:04:41.068Z,30.00
2019-02-21T00:05:40.967Z,29.80
2019-02-21T00:06:41.092Z,30.30
2019-02-21T00:07:40.863Z,29.90
2019-02-21T00:08:40.814Z,31.00
2019-02-21T00:09:40.795Z,30.60
2019-02-21T00:10:40.760Z,29.80
2019-02-21T00:11:40.915Z,30.10
2019-02-21T00:12:40.612Z,31.60
2019-02-21T00:13:40.561Z,30.70
2019-02-21T00:14:40.542Z,30.70
2019-02-21T00:15:40.460Z,31.60
2019-02-21T00:16:40.610Z,31.60
2019-02-21T00:17:40.361Z,31.40
2019-02-21T00:18:40.423Z,32.30
2019-02-21T00:19:40.360Z,31.60
2019-02-21T00:20:40.211Z,31.70
2019-02-21T00:21:40.312Z,31.80
2019-02-21T00:22:40.107Z,31.70
2019-02-21T00:23:40.057Z,32.20
2019-02-21T00:24:40.188Z,32.40
2019-02-21T00:25:39.955Z,32.40
2019-02-21T00:26:40.110Z,33.10
2019-02-21T00:27:39.856Z,31.60
2019-02-21T00:28:39.805Z,32.30
2019-02-21T00:29:39.818Z,33.30
2019-02-21T00:30:39.706Z,33.40
2019-02-21T00:31:40.256Z,32.00
2019-02-21T00:32:39.602Z,32.90
2019-02-21T00:33:39.560Z,33.10
2019-02-21T00:34:39.536Z,33.20
2019-02-21T00:35:39.470Z,33.60
2019-02-21T00:36:39.625Z,33.90
2019-02-21T00:37:39.351Z,34.10
2019-02-21T00:38:39.304Z,32.20
2019-02-21T00:39:39.370Z,32.80
2019-02-21T00:40:39.201Z,33.10
2019-02-21T00:41:39.329Z,32.70
2019-02-21T00:42:39.129Z,33.30
2019-02-21T00:43:39.048Z,34.10
2019-02-21T00:44:39.104Z,33.70
2019-02-21T00:45:38.947Z,33.60
2019-02-21T00:46:39.128Z,32.80
2019-02-21T00:47:38.843Z,33.60
2019-02-21T00:48:38.793Z,34.80
2019-02-21T00:49:38.823Z,33.30
2019-02-21T00:50:38.697Z,34.10
2019-02-21T00:51:38.829Z,33.70
2019-02-21T00:52:38.598Z,33.70
2019-02-21T00:53:38.545Z,33.00
2019-02-21T00:54:38.524Z,32.50
2019-02-21T00:55:38.436Z,34.50
2019-02-21T00:56:38.626Z,33.10
2019-02-21T00:57:38.340Z,34.00
2019-02-21T00:58:38.302Z,33.40
2019-02-21T00:59:38.287Z,33.80
2019-02-21T01:00:46.191Z,33.00
2019-02-21T01:01:38.167Z,32.30
2019-02-21T01:02:38.087Z,31.20
2019-02-21T01:03:38.234Z,34.00
2019-02-21T01:04:37.989Z,33.20
2019-02-21T01:05:37.935Z,32.40
2019-02-21T01:06:38.019Z,32.80
2019-02-21T01:07:37.850Z,32.40
2019-02-21T01:08:37.937Z,33.70
2019-02-21T01:09:37.735Z,31.20
2019-02-21T01:10:37.686Z,33.80
2019-02-21T01:11:37.663Z,32.50
2019-02-21T01:12:37.583Z,32.50
2019-02-21T01:13:37.739Z,32.10
2019-02-21T01:14:37.484Z,33.20
2019-02-21T01:15:37.434Z,32.90
2019-02-21T01:16:37.460Z,32.80
2019-02-21T01:17:37.335Z,32.40
2019-02-21T01:18:37.309Z,31.80
2019-02-21T01:19:37.227Z,33.60
2019-02-21T01:20:37.336Z,32.00
2019-02-21T01:21:37.125Z,34.00
2019-02-21T01:22:37.080Z,33.00
2019-02-21T01:23:37.108Z,32.60
2019-02-21T01:24:36.975Z,33.70
2019-02-21T01:25:37.174Z,33.30
2019-02-21T01:26:36.883Z,34.20
2019-02-21T01:27:36.822Z,32.70
2019-02-21T01:28:36.834Z,32.50
2019-02-21T01:29:36.723Z,32.80
2019-02-21T01:30:36.848Z,32.90
2019-02-21T01:31:36.624Z,33.60
2019-02-21T01:32:36.574Z,32.30
2019-02-21T01:33:36.556Z,33.30
2019-02-21T01:34:36.471Z,33.00
2019-02-21T01:35:36.658Z,33.80
2019-02-21T01:36:36.368Z,33.80
2019-02-21T01:37:36.319Z,31.90
2019-02-21T01:38:36.389Z,32.20
2019-02-21T01:39:36.218Z,32.90
2019-02-21T01:40:36.368Z,31.60
2019-02-21T01:41:36.120Z,31.90
2019-02-21T01:42:36.066Z,31.00
2019-02-21T01:43:36.119Z,31.90
2019-02-21T01:44:35.962Z,32.00
2019-02-21T01:45:36.062Z,31.90
2019-02-21T01:46:35.864Z,31.00
2019-02-21T01:47:35.857Z,30.50
2019-02-21T01:48:35.822Z,32.00
2019-02-21T01:49:35.714Z,31.20
2019-02-21T01:50:35.876Z,31.50
2019-02-21T01:51:35.614Z,31.50
2019-02-21T01:52:35.557Z,31.20
2019-02-21T01:53:35.534Z,31.90
2019-02-21T01:54:35.457Z,30.90
2019-02-21T01:55:35.570Z,32.00
2019-02-21T01:56:35.357Z,31.10
2019-02-21T01:57:35.303Z,30.80
2019-02-21T01:58:35.289Z,31.20
2019-02-21T01:59:35.202Z,32.60
2019-02-21T02:00:35.380Z,31.80
2019-02-21T02:01:35.101Z,31.00
2019-02-21T02:02:35.055Z,31.70
2019-02-21T02:03:35.124Z,31.80
2019-02-21T02:04:34.954Z,32.80
2019-02-21T02:05:35.067Z,32.20
2019-02-21T02:06:34.853Z,33.20
2019-02-21T02:07:34.796Z,32.80
2019-02-21T02:08:34.856Z,32.90
2019-02-21T02:09:34.696Z,32.70
2019-02-21T02:10:34.880Z,33.30
2019-02-21T02:11:34.593Z,33.20
2019-02-21T02:12:34.546Z,33.80
2019-02-21T02:13:34.526Z,32.00
2019-02-21T02:14:34.476Z,32.80
2019-02-21T02:15:34.575Z,33.20
2019-02-21T02:16:34.342Z,32.40
2019-02-21T02:17:34.291Z,32.30
2019-02-21T02:18:34.313Z,32.50
2019-02-21T02:19:34.188Z,32.30
2019-02-21T02:20:34.296Z,32.60
2019-02-21T02:21:34.086Z,32.30
2019-02-21T02:22:34.151Z,32.90
2019-02-21T02:23:34.031Z,33.20
2019-02-21T02:24:33.931Z,32.60
2019-02-21T02:25:34.083Z,32.90
2019-02-21T02:26:33.832Z,32.20
2019-02-21T02:27:33.780Z,32.30
2019-02-21T02:28:33.753Z,33.60
2019-02-21T02:29:33.680Z,32.10
2019-02-21T02:30:33.785Z,33.00
2019-02-21T02:31:33.583Z,32.00
2019-02-21T02:32:33.529Z,31.20
2019-02-21T02:33:33.508Z,32.70
2019-02-21T02:34:33.432Z,31.60
2019-02-21T02:35:33.589Z,33.00
2019-02-21T02:36:33.335Z,33.20
2019-02-21T02:37:33.275Z,31.80
2019-02-21T02:38:33.315Z,31.80
2019-02-21T02:39:33.169Z,31.50
2019-02-21T02:40:33.290Z,31.40
2019-02-21T02:41:33.067Z,32.30
2019-02-21T02:42:33.124Z,31.60
2019-02-21T02:43:33.198Z,31.90
2019-02-21T02:44:32.920Z,32.60
2019-02-21T02:45:32.868Z,32.30
2019-02-21T02:46:32.854Z,32.90
2019-02-21T02:47:32.762Z,33.10
2019-02-21T02:48:32.908Z,32.70
2019-02-21T02:49:32.663Z,33.00
2019-02-21T02:50:32.648Z,33.70
2019-02-21T02:51:32.590Z,32.80
2019-02-21T02:52:32.510Z,33.00
2019-02-21T02:53:32.699Z,32.70
2019-02-21T02:54:32.410Z,32.40
2019-02-21T02:55:32.358Z,32.60
2019-02-21T02:56:32.410Z,33.00
2019-02-21T02:57:32.256Z,32.30
2019-02-21T02:58:32.381Z,33.40
2019-02-21T02:59:40.355Z,32.80
2019-02-21T03:00:32.299Z,33.20
2019-02-21T03:01:35.072Z,32.40
2019-02-21T03:02:32.002Z,33.90
2019-02-21T03:03:32.049Z,32.90
2019-02-21T03:04:31.899Z,34.50
2019-02-21T03:05:31.998Z,34.10
2019-02-21T03:06:31.796Z,33.50
2019-02-21T03:07:31.745Z,33.80
2019-02-21T03:08:31.730Z,33.90
2019-02-21T03:09:31.669Z,33.60
2019-02-21T03:10:31.824Z,33.70
2019-02-21T03:11:31.543Z,34.40
2019-02-21T03:12:31.491Z,34.60
2019-02-21T03:13:31.477Z,33.40
2019-02-21T03:14:31.387Z,33.90
2019-02-21T03:15:31.533Z,33.80
2019-02-21T03:16:31.285Z,34.40
2019-02-21T03:17:31.235Z,34.20
2019-02-21T03:18:31.226Z,34.20
2019-02-21T03:19:31.133Z,34.80
2019-02-21T03:20:31.323Z,35.00
2019-02-21T03:21:31.028Z,35.30
2019-02-21T03:22:30.979Z,34.50
2019-02-21T03:23:30.955Z,35.40
2019-02-21T03:24:30.876Z,35.40
2019-02-21T03:25:31.027Z,35.00
2019-02-21T03:26:30.773Z,35.50
2019-02-21T03:27:30.722Z,34.50
2019-02-21T03:28:30.689Z,34.50
2019-02-21T03:29:30.619Z,34.90
2019-02-21T03:30:30.728Z,34.80
2019-02-21T03:31:30.526Z,34.70
2019-02-21T03:32:30.465Z,34.20
2019-02-21T03:33:30.513Z,34.70
2019-02-21T03:34:30.363Z,34.80
2019-02-21T03:35:30.538Z,34.60
2019-02-21T03:36:30.279Z,36.00
2019-02-21T03:37:30.267Z,35.00
2019-02-21T03:38:34.863Z,36.60
2019-02-21T03:39:30.106Z,35.30
2019-02-21T03:40:30.238Z,36.40
2019-02-21T03:41:30.015Z,35.50
2019-02-21T03:42:29.951Z,36.80
2019-02-21T03:43:29.962Z,35.90
2019-02-21T03:44:29.850Z,35.30
2019-02-21T03:45:30.046Z,36.60
2019-02-21T03:46:29.747Z,36.70
2019-02-21T03:47:29.694Z,37.50
2019-02-21T03:48:29.673Z,36.50
2019-02-21T03:49:29.599Z,36.90
2019-02-21T03:50:29.751Z,36.80
2019-02-21T03:51:29.489Z,36.50
2019-02-21T03:52:29.440Z,36.90
2019-02-21T03:53:29.419Z,37.30
2019-02-21T03:54:29.338Z,35.70
2019-02-21T03:55:29.449Z,36.00
2019-02-21T03:56:29.230Z,36.90
2019-02-21T03:57:29.180Z,35.00
2019-02-21T03:58:29.244Z,36.40
2019-02-21T03:59:29.086Z,35.30
2019-02-21T04:00:29.236Z,35.90
2019-02-21T04:01:28.981Z,35.80
2019-02-21T04:02:28.922Z,35.70
2019-02-21T04:03:28.970Z,36.20
2019-02-21T04:04:28.819Z,35.80
2019-02-21T04:05:28.953Z,34.30
2019-02-21T04:06:28.718Z,36.20
2019-02-21T04:07:28.664Z,35.00
2019-02-21T04:08:28.642Z,35.70
2019-02-21T04:09:28.561Z,36.40
2019-02-21T04:10:28.752Z,36.20
2019-02-21T04:11:28.460Z,35.90
2019-02-21T04:12:28.407Z,36.40
2019-02-21T04:13:28.429Z,35.00
2019-02-21T04:14:28.310Z,34.60
2019-02-21T04:15:28.455Z,35.20
2019-02-21T04:16:28.202Z,35.20
2019-02-21T04:17:28.150Z,35.70
2019-02-21T04:18:28.150Z,36.50
2019-02-21T04:19:28.046Z,34.80
2019-02-21T04:20:28.147Z,35.80
2019-02-21T04:21:27.943Z,36.30
2019-02-21T04:22:27.896Z,36.70
2019-02-21T04:23:27.882Z,34.50
2019-02-21T04:24:27.790Z,34.30
2019-02-21T04:25:27.951Z,36.00
2019-02-21T04:26:27.686Z,33.40
2019-02-21T04:27:27.631Z,35.20
2019-02-21T04:28:27.612Z,35.30
2019-02-21T04:29:27.529Z,36.30
2019-02-21T04:30:27.667Z,34.50
2019-02-21T04:31:27.426Z,36.00
2019-02-21T04:32:27.375Z,35.40
2019-02-21T04:33:27.433Z,34.80
2019-02-21T04:34:27.274Z,34.00
2019-02-21T04:35:27.362Z,34.00
2019-02-21T04:36:27.169Z,35.20
2019-02-21T04:37:27.119Z,35.30
2019-02-21T04:38:27.160Z,35.70
2019-02-21T04:39:27.018Z,34.20
2019-02-21T04:40:27.166Z,33.40
2019-02-21T04:41:26.912Z,34.80
2019-02-21T04:42:26.862Z,34.90
2019-02-21T04:43:26.888Z,34.70
2019-02-21T04:44:26.759Z,34.10
2019-02-21T04:45:26.875Z,35.00
2019-02-21T04:46:26.656Z,34.10
2019-02-21T04:47:26.608Z,33.10
2019-02-21T04:48:26.585Z,34.20
2019-02-21T04:49:26.497Z,34.10
2019-02-21T04:50:26.672Z,34.60
2019-02-21T04:51:26.402Z,34.80
2019-02-21T04:52:26.348Z,34.10
2019-02-21T04:53:26.343Z,34.70
2019-02-21T04:54:26.241Z,34.60
2019-02-21T04:55:26.383Z,34.50
2019-02-21T04:56:26.139Z,35.90
2019-02-21T04:57:26.087Z,35.50
2019-02-21T04:58:26.070Z,34.00
2019-02-21T04:59:25.987Z,35.50
2019-02-21T05:00:26.082Z,35.80
2019-02-21T05:01:25.881Z,34.90
2019-02-21T05:02:28.889Z,35.10
2019-02-21T05:03:25.790Z,35.50
2019-02-21T05:04:25.733Z,34.50
2019-02-21T05:05:25.903Z,35.70
2019-02-21T05:06:25.623Z,35.60
2019-02-21T05:07:25.573Z,35.80
2019-02-21T05:08:25.623Z,34.80
2019-02-21T05:09:27.149Z,36.20
2019-02-21T05:10:25.588Z,36.00
2019-02-21T05:11:25.366Z,35.00
2019-02-21T05:12:25.315Z,35.30
2019-02-21T05:13:25.348Z,35.80
2019-02-21T05:14:25.244Z,35.40
2019-02-21T05:15:25.408Z,36.80
2019-02-21T05:16:25.111Z,36.80
2019-02-21T05:17:25.057Z,37.30
2019-02-21T05:18:25.075Z,37.10
2019-02-21T05:19:24.957Z,38.30
2019-02-21T05:20:25.093Z,36.30
2019-02-21T05:21:24.853Z,36.40
2019-02-21T05:22:24.800Z,36.50
2019-02-21T05:23:24.780Z,37.50
2019-02-21T05:24:24.698Z,36.00
2019-02-21T05:25:24.815Z,37.60
2019-02-21T05:26:24.592Z,38.40
2019-02-21T05:27:24.539Z,38.00
2019-02-21T05:28:24.514Z,38.50
2019-02-21T05:29:24.441Z,36.50
2019-02-21T05:30:24.600Z,40.40
2019-02-21T05:31:24.334Z,40.50
2019-02-21T05:32:24.282Z,40.80
2019-02-21T05:33:24.262Z,41.10
2019-02-21T05:34:24.185Z,37.30
2019-02-21T05:35:24.310Z,39.20
2019-02-21T05:36:24.075Z,38.70
2019-02-21T05:37:24.043Z,37.30
2019-02-21T05:38:24.086Z,37.80
2019-02-21T05:39:23.920Z,36.80
2019-02-21T05:40:24.115Z,36.40
2019-02-21T05:41:23.818Z,36.20
2019-02-21T05:42:23.766Z,35.90
2019-02-21T05:43:23.746Z,36.10
2019-02-21T05:44:23.661Z,36.20
2019-02-21T05:45:23.811Z,35.80
2019-02-21T05:46:23.559Z,34.90
2019-02-21T05:47:23.505Z,34.80
2019-02-21T05:48:23.537Z,35.10
2019-02-21T05:49:23.401Z,35.80
2019-02-21T05:50:23.515Z,36.00
2019-02-21T05:51:23.296Z,35.30
2019-02-21T05:52:23.246Z,35.80
2019-02-21T05:53:23.263Z,33.50
2019-02-21T05:54:23.142Z,35.00
2019-02-21T05:55:23.319Z,35.70
2019-02-21T05:56:23.042Z,35.80
2019-02-21T05:57:22.988Z,35.40
2019-02-21T05:58:22.961Z,35.70
2019-02-21T05:59:22.879Z,35.20
2019-02-21T06:00:23.021Z,35.50
2019-02-21T06:01:22.780Z,36.30
2019-02-21T06:02:22.724Z,35.80
2019-02-21T06:03:22.706Z,36.50
2019-02-21T06:04:22.621Z,36.50
2019-02-21T06:05:22.724Z,36.40
2019-02-21T06:06:22.520Z,37.10
2019-02-21T06:07:22.465Z,36.20
2019-02-21T06:08:22.444Z,35.10
2019-02-21T06:09:22.362Z,35.80
2019-02-21T06:10:22.533Z,35.30
2019-02-21T06:11:22.257Z,35.60
2019-02-21T06:12:33.217Z,35.80
2019-02-21T06:13:22.165Z,37.00
2019-02-21T06:14:22.100Z,37.80
2019-02-21T06:15:22.230Z,37.80
2019-02-21T06:16:22.000Z,36.80
2019-02-21T06:17:21.959Z,37.80
2019-02-21T06:18:21.904Z,37.10
2019-02-21T06:19:21.851Z,38.50
2019-02-21T06:20:21.787Z,40.30
2019-02-21T06:21:21.737Z,46.10
2019-02-21T06:22:21.694Z,46.50
2019-02-21T06:23:21.638Z,40.00
2019-02-21T06:24:21.589Z,40.00
2019-02-21T06:25:21.534Z,39.00
2019-02-21T06:26:21.480Z,39.40
2019-02-21T06:27:21.424Z,38.20
2019-02-21T06:28:21.379Z,35.60
2019-02-21T06:29:22.557Z,37.60
2019-02-21T06:30:21.273Z,37.00
2019-02-21T06:31:21.376Z,35.90
2019-02-21T06:32:21.164Z,36.30
2019-02-21T06:33:21.117Z,35.70
2019-02-21T06:34:21.069Z,36.00
2019-02-21T06:35:21.009Z,36.40
2019-02-21T06:36:21.154Z,37.40
2019-02-21T06:37:20.906Z,35.40
2019-02-21T06:38:20.853Z,37.70
2019-02-21T06:39:20.795Z,36.40
2019-02-21T06:40:20.745Z,37.20
2019-02-21T06:41:20.698Z,36.60
2019-02-21T06:42:20.647Z,37.50
2019-02-21T06:46:36.755Z,36.70
2019-02-21T06:47:36.580Z,36.70
2019-02-21T06:49:32.778Z,36.30
2019-02-21T06:50:29.794Z,35.80
2019-02-21T06:51:29.741Z,35.70
2019-02-21T06:52:29.684Z,36.30
2019-02-21T06:53:29.857Z,34.90
2019-02-21T06:54:29.584Z,34.80
2019-02-21T06:55:29.533Z,35.90
2019-02-21T06:56:29.488Z,35.30
2019-02-21T06:57:29.431Z,34.10
2019-02-21T06:58:29.378Z,34.60
2019-02-21T06:59:29.323Z,34.40
2019-02-21T07:00:29.288Z,35.30
2019-02-21T07:01:29.703Z,34.90
2019-02-21T07:02:29.174Z,33.10
2019-02-21T07:03:29.187Z,34.00
2019-02-21T07:04:29.068Z,33.60
2019-02-21T07:05:29.017Z,33.60
2019-02-21T07:06:32.229Z,32.30
2019-02-21T07:07:28.933Z,31.50
2019-02-21T07:08:28.874Z,31.80
2019-02-21T07:09:28.812Z,31.50
2019-02-21T07:10:28.778Z,32.10
2019-02-21T07:11:28.716Z,31.10
2019-02-21T07:12:28.877Z,31.80
2019-02-21T07:13:28.660Z,31.50
2019-02-21T07:14:28.585Z,31.60
2019-02-21T07:15:28.500Z,30.90
2019-02-21T07:16:28.469Z,31.80
2019-02-21T07:17:28.610Z,31.70
2019-02-21T07:18:29.051Z,29.90
2019-02-21T07:19:28.342Z,31.40
2019-02-21T07:20:28.306Z,32.30
2019-02-21T07:21:28.238Z,30.20
2019-02-21T07:22:28.149Z,30.80
2019-02-21T07:23:30.978Z,30.70
2019-02-21T07:24:28.083Z,30.60
2019-02-21T07:25:28.019Z,30.80
2019-02-21T07:26:27.935Z,30.30
2019-02-21T07:27:28.085Z,30.50
2019-02-21T07:28:27.999Z,29.80
2019-02-21T07:29:27.816Z,29.30
2019-02-21T07:30:27.766Z,30.70
2019-02-21T07:31:29.161Z,29.90
2019-02-21T07:32:27.646Z,29.80
2019-02-21T07:33:28.943Z,29.70
2019-02-21T07:34:30.123Z,27.80
2019-02-21T07:35:27.487Z,29.10
2019-02-21T07:36:28.021Z,29.00
2019-02-21T07:37:27.373Z,29.50
2019-02-21T07:38:27.325Z,28.50
2019-02-21T07:39:35.634Z,28.20
2019-02-21T07:40:27.490Z,28.80
2019-02-21T07:41:27.198Z,28.20
2019-02-21T07:42:27.120Z,28.40
2019-02-21T07:43:27.077Z,28.80
2019-02-21T07:44:27.016Z,29.30
2019-02-21T07:45:26.994Z,28.60
2019-02-21T07:46:26.923Z,28.90
2019-02-21T07:47:26.864Z,28.40
2019-02-21T07:48:26.825Z,28.60
2019-02-21T07:49:26.770Z,28.70
2019-02-21T07:50:26.711Z,28.50
2019-02-21T07:51:26.666Z,28.60
2019-02-21T07:52:26.611Z,28.00
2019-02-21T07:53:26.563Z,28.20
2019-02-21T07:54:26.507Z,29.20
2019-02-21T07:55:26.833Z,29.00
2019-02-21T07:56:26.408Z,28.30
2019-02-21T07:57:26.362Z,27.60
2019-02-21T07:58:26.312Z,28.50
2019-02-21T07:59:26.255Z,28.30
2019-02-21T08:00:26.205Z,28.80
2019-02-21T08:01:26.887Z,28.00
2019-02-21T08:02:26.124Z,27.70
2019-02-21T08:03:30.349Z,28.80
2019-02-21T08:04:26.008Z,28.40
2019-02-21T08:05:25.959Z,28.50
2019-02-21T08:06:25.905Z,28.40
2019-02-21T08:07:26.454Z,28.50
2019-02-21T08:08:25.808Z,27.40
2019-02-21T08:09:27.767Z,28.70
2019-02-21T08:10:33.211Z,28.90
2019-02-21T08:11:25.672Z,28.50
2019-02-21T08:12:25.621Z,28.70
2019-02-21T08:13:25.553Z,28.30
2019-02-21T08:14:25.516Z,28.60
2019-02-21T08:15:27.528Z,27.80
2019-02-21T08:16:25.405Z,27.10
2019-02-21T08:17:27.832Z,28.20
2019-02-21T08:18:25.487Z,27.40
2019-02-21T08:19:25.255Z,28.20
2019-02-21T08:20:33.561Z,27.30
2019-02-21T08:21:25.191Z,27.50
2019-02-21T08:22:25.112Z,28.20
2019-02-21T08:23:25.062Z,26.10
2019-02-21T08:24:25.009Z,27.20
2019-02-21T08:25:24.961Z,27.10
2019-02-21T08:26:24.911Z,27.80
2019-02-21T08:27:24.870Z,27.90
2019-02-21T08:28:24.812Z,26.80
2019-02-21T08:29:24.762Z,27.50
2019-02-21T08:30:24.716Z,27.50
2019-02-21T08:31:24.657Z,27.80
2019-02-21T08:32:24.616Z,27.30
2019-02-21T08:33:24.565Z,28.30
2019-02-21T08:34:24.508Z,27.50
2019-02-21T08:35:24.457Z,26.90
2019-02-21T08:36:24.408Z,27.00
2019-02-21T08:37:24.370Z,27.60
2019-02-21T08:38:24.304Z,27.70
2019-02-21T08:39:24.267Z,27.30
2019-02-21T08:40:25.134Z,28.80
2019-02-21T08:41:25.827Z,27.80
2019-02-21T08:42:24.118Z,27.50
2019-02-21T08:43:24.090Z,27.60
2019-02-21T08:44:24.031Z,28.40
2019-02-21T08:45:23.961Z,27.80
2019-02-21T08:46:23.921Z,28.60
2019-02-21T08:47:23.864Z,28.20
2019-02-21T08:48:23.844Z,27.40
2019-02-21T08:49:23.765Z,27.90
2019-02-21T08:50:23.782Z,28.10
2019-02-21T08:51:23.718Z,27.30
2019-02-21T08:52:23.670Z,27.20
2019-02-21T08:53:23.624Z,27.70
2019-02-21T08:54:23.555Z,27.10
2019-02-21T08:55:23.476Z,26.40
2019-02-21T08:56:23.540Z,27.70
2019-02-21T08:57:23.445Z,26.70
2019-02-21T08:58:24.984Z,27.90
2019-02-21T08:59:23.630Z,26.30
2019-02-21T09:01:23.245Z,27.70
2019-02-21T09:02:24.148Z,26.70
2019-02-21T09:03:23.207Z,26.80
2019-02-21T09:04:27.308Z,27.40
2019-02-21T09:05:23.096Z,28.40
2019-02-21T09:06:24.660Z,27.80
2019-02-21T09:07:46.169Z,27.20
2019-02-21T09:08:32.998Z,28.00
2019-02-21T09:09:23.273Z,27.50
2019-02-21T09:10:22.915Z,28.20
2019-02-21T09:11:22.980Z,27.10
2019-02-21T09:12:22.920Z,26.70
2019-02-21T09:13:43.877Z,28.30
2019-02-21T09:14:23.305Z,27.70
2019-02-21T09:15:23.158Z,28.20
2019-02-21T09:16:22.532Z,28.70
2019-02-21T09:17:22.442Z,29.00
2019-02-21T09:18:22.413Z,28.20
2019-02-21T09:19:43.293Z,29.50
2019-02-21T09:20:22.242Z,28.70
2019-02-21T09:21:22.198Z,29.40
2019-02-21T09:22:22.152Z,29.50
2019-02-21T09:23:22.107Z,29.80
2019-02-21T09:24:37.867Z,29.00
2019-02-21T09:25:43.007Z,28.90
2019-02-21T09:26:21.956Z,30.30
2019-02-21T09:27:21.919Z,30.50
2019-02-21T09:28:21.853Z,30.60
2019-02-21T09:29:21.812Z,30.90
2019-02-21T09:30:21.757Z,27.40
2019-02-21T09:31:42.701Z,28.10
2019-02-21T09:32:21.661Z,27.10
2019-02-21T09:33:21.842Z,26.30
2019-02-21T09:34:21.662Z,25.70
2019-02-21T09:35:21.515Z,26.50
2019-02-21T09:36:21.469Z,26.10
2019-02-21T09:37:42.412Z,26.40
2019-02-21T09:38:21.386Z,26.30
2019-02-21T09:39:21.531Z,25.20
2019-02-21T09:40:21.266Z,25.70
2019-02-21T09:41:57.061Z,27.30
2019-02-21T09:42:42.156Z,25.90
2019-02-21T09:43:21.122Z,25.50
2019-02-21T09:44:21.165Z,26.60
2019-02-21T09:45:21.026Z,26.30
2019-02-21T09:46:20.978Z,26.00
2019-02-21T09:47:20.930Z,27.50
2019-02-21T09:48:41.901Z,25.40
2019-02-21T09:49:20.840Z,26.70
2019-02-21T09:50:20.784Z,26.10
2019-02-21T09:51:20.736Z,26.30
2019-02-21T09:52:20.710Z,26.10
2019-02-21T09:53:20.655Z,26.30
2019-02-21T09:54:41.747Z,26.50
2019-02-21T09:55:20.546Z,26.00
2019-02-21T09:56:29.894Z,27.00
2019-02-21T09:57:20.452Z,25.90
2019-02-21T09:58:20.470Z,25.30
2019-02-21T09:59:20.352Z,25.00
2019-02-21T10:00:41.311Z,25.40
2019-02-21T10:01:20.329Z,25.70
2019-02-21T10:02:22.965Z,26.10
2019-02-21T10:03:20.177Z,25.70
2019-02-21T10:04:20.342Z,25.90
2019-02-21T10:05:20.107Z,25.60
2019-02-21T10:06:41.051Z,25.60
2019-02-21T10:07:20.020Z,25.70
2019-02-21T10:08:21.954Z,26.30
2019-02-21T10:09:19.886Z,26.70
2019-02-21T10:10:19.837Z,25.40
2019-02-21T10:11:19.777Z,25.90
2019-02-21T10:12:40.726Z,26.30
2019-02-21T10:13:19.724Z,26.60
2019-02-21T10:14:21.468Z,26.20
2019-02-21T10:15:19.624Z,24.80
2019-02-21T10:16:19.573Z,27.70
2019-02-21T10:17:19.541Z,25.00
2019-02-21T10:18:40.475Z,26.40
2019-02-21T10:19:19.384Z,25.10
2019-02-21T10:20:19.330Z,24.90
2019-02-21T10:21:19.289Z,25.40
2019-02-21T10:22:19.256Z,25.90
2019-02-21T10:23:19.195Z,25.20
2019-02-21T10:24:40.137Z,25.00
2019-02-21T10:25:19.102Z,25.40
2019-02-21T10:26:19.066Z,25.20
2019-02-21T10:27:19.002Z,26.00
2019-02-21T10:28:19.025Z,24.40
2019-02-21T10:29:18.908Z,24.50
2019-02-21T10:30:39.851Z,24.60
2019-02-21T10:31:18.807Z,24.00
2019-02-21T10:32:18.773Z,24.30
2019-02-21T10:33:18.726Z,24.00
2019-02-21T10:34:18.664Z,23.30
2019-02-21T10:35:18.639Z,22.50
2019-02-21T10:36:39.551Z,23.60
2019-02-21T10:37:18.515Z,23.10
2019-02-21T10:38:18.456Z,25.40
2019-02-21T10:39:18.407Z,25.00
2019-02-21T10:40:18.368Z,24.60
2019-02-21T10:41:18.312Z,25.40
2019-02-21T10:42:39.256Z,24.00
2019-02-21T10:43:18.216Z,24.00
2019-02-21T10:44:18.186Z,22.60
2019-02-21T10:45:18.120Z,23.10
2019-02-21T10:46:18.075Z,22.60
2019-02-21T10:47:18.185Z,19.80
2019-02-21T10:48:38.965Z,21.00
2019-02-21T10:49:17.926Z,19.10
2019-02-21T10:50:17.888Z,19.90
2019-02-21T10:51:17.832Z,19.00
2019-02-21T10:52:17.787Z,19.20
2019-02-21T10:53:17.735Z,17.30
2019-02-21T10:54:38.732Z,16.10
2019-02-21T10:55:17.641Z,15.50
2019-02-21T10:56:17.597Z,15.90
2019-02-21T10:57:17.548Z,15.70
2019-02-21T10:58:17.511Z,15.80
2019-02-21T10:59:17.536Z,15.70
2019-02-21T11:00:38.394Z,14.50
2019-02-21T11:01:17.354Z,14.60
2019-02-21T11:02:17.494Z,15.20
2019-02-21T11:03:17.276Z,13.70
2019-02-21T11:04:17.221Z,12.60
2019-02-21T11:05:17.172Z,13.20
2019-02-21T11:06:38.110Z,13.60
2019-02-21T11:07:17.072Z,15.30
2019-02-21T11:08:17.039Z,14.70
2019-02-21T11:09:16.979Z,15.80
2019-02-21T11:10:19.023Z,14.90
2019-02-21T11:11:17.293Z,14.00
2019-02-21T11:12:37.827Z,15.20
2019-02-21T11:13:16.775Z,14.90
2019-02-21T11:14:16.741Z,14.40
2019-02-21T11:15:16.684Z,13.50
2019-02-21T11:16:16.634Z,14.10
2019-02-21T11:17:16.602Z,13.60
2019-02-21T11:18:37.551Z,12.90
2019-02-21T11:19:16.493Z,13.80
2019-02-21T11:20:16.461Z,14.10
2019-02-21T11:21:16.407Z,15.10
2019-02-21T11:22:16.353Z,15.90
2019-02-21T11:23:16.309Z,15.70
2019-02-21T11:24:37.307Z,15.30
2019-02-21T11:25:16.233Z,14.70
2019-02-21T11:26:16.161Z,14.80
2019-02-21T11:27:16.114Z,13.00
2019-02-21T11:28:16.070Z,12.90
2019-02-21T11:29:16.030Z,13.20
2019-02-21T11:30:36.968Z,13.10
2019-02-21T11:31:15.925Z,13.60
2019-02-21T11:32:15.876Z,13.40
2019-02-21T11:33:15.831Z,13.90
2019-02-21T11:34:15.789Z,12.40
2019-02-21T11:35:15.747Z,12.00
2019-02-21T11:36:36.680Z,12.80
2019-02-21T11:37:15.648Z,13.00
2019-02-21T11:38:15.587Z,13.40
2019-02-21T11:39:15.559Z,12.80
2019-02-21T11:40:15.497Z,12.60
2019-02-21T11:41:15.455Z,13.50
2019-02-21T11:42:36.393Z,13.10
2019-02-21T11:43:15.357Z,13.60
2019-02-21T11:44:15.312Z,13.80
2019-02-21T11:45:15.261Z,13.60
2019-02-21T11:46:15.220Z,14.10
2019-02-21T11:47:15.173Z,13.90
2019-02-21T11:48:36.115Z,13.40
2019-02-21T11:49:15.093Z,14.80
2019-02-21T11:50:15.096Z,14.70
2019-02-21T11:51:14.981Z,14.90
2019-02-21T11:52:14.929Z,14.40
2019-02-21T11:53:14.902Z,15.00
2019-02-21T11:54:35.900Z,15.00
2019-02-21T11:55:14.816Z,15.70
2019-02-21T11:56:15.721Z,16.40
2019-02-21T11:57:14.701Z,17.10
2019-02-21T11:58:14.686Z,17.10
2019-02-21T11:59:16.155Z,17.10
2019-02-21T12:00:35.551Z,17.40
2019-02-21T12:01:14.510Z,17.70
2019-02-21T12:02:14.464Z,17.30
2019-02-21T12:03:14.417Z,18.30
2019-02-21T12:04:14.365Z,18.60
2019-02-21T12:05:17.393Z,20.00
2019-02-21T12:06:35.256Z,17.90
2019-02-21T12:07:14.259Z,17.50
2019-02-21T12:08:14.173Z,17.90
2019-02-21T12:09:14.122Z,17.90
2019-02-21T12:10:14.088Z,17.40
2019-02-21T12:11:14.033Z,17.70
2019-02-21T12:12:35.073Z,18.50
2019-02-21T12:13:13.948Z,19.80
2019-02-21T12:14:13.919Z,18.80
2019-02-21T12:15:13.896Z,18.60
2019-02-21T12:16:13.803Z,20.30
2019-02-21T12:17:13.753Z,20.80
2019-02-21T12:18:34.700Z,20.20
2019-02-21T12:19:13.659Z,21.30
2019-02-21T12:20:13.808Z,21.30
2019-02-21T12:21:13.570Z,22.10
2019-02-21T12:22:13.510Z,21.90
2019-02-21T12:23:13.469Z,20.50
2019-02-21T12:24:34.700Z,21.10
2019-02-21T12:25:13.391Z,20.50
2019-02-21T12:26:13.331Z,20.50
2019-02-21T12:27:13.306Z,21.20
2019-02-21T12:28:13.228Z,20.90
2019-02-21T12:29:15.109Z,19.60
2019-02-21T12:30:34.121Z,20.20
2019-02-21T12:31:13.096Z,20.60
2019-02-21T12:32:13.034Z,20.00
2019-02-21T12:33:12.984Z,20.00
2019-02-21T12:34:12.953Z,20.00
2019-02-21T12:35:12.894Z,19.70
2019-02-21T12:36:33.853Z,20.80
2019-02-21T12:37:12.807Z,20.10
2019-02-21T12:38:13.030Z,19.40
2019-02-21T12:39:12.709Z,20.00
2019-02-21T12:40:12.649Z,19.70
2019-02-21T12:41:12.623Z,19.50
2019-02-21T12:42:33.817Z,19.20
2019-02-21T12:43:12.509Z,18.80
2019-02-21T12:44:12.468Z,18.80
2019-02-21T12:45:12.610Z,18.90
2019-02-21T12:46:12.379Z,18.80
2019-02-21T12:47:12.319Z,18.50
2019-02-21T12:48:33.277Z,18.70
2019-02-21T12:49:12.251Z,17.70
2019-02-21T12:50:12.431Z,18.30
2019-02-21T12:51:12.125Z,18.70
2019-02-21T12:52:12.085Z,18.50
2019-02-21T12:53:12.077Z,18.80
2019-02-21T12:54:33.112Z,18.50
2019-02-21T12:55:11.950Z,18.80
2019-02-21T12:56:11.897Z,19.70
2019-02-21T12:57:12.125Z,20.00